sensor_id;sensor_type;location;lat;lon;timestamp;P1;durP1;ratioP1;P2;durP2;ratioP2
80179;SDS011;69505;52.134;5.438;2023-09-18T00:00:58;13.95;;;9.35;;
80179;SDS011;69505;52.134;5.438;2023-09-18T00:03:25;12.38;;;10.10;;
80179;SDS011;69505;52.134;5.438;2023-09-18T00:05:51;16.00;;;9.75;;
80179;SDS011;69505;52.134;5.438;2023-09-18T00:08:19;16.67;;;9.05;;
80179;SDS011;69505;52.134;5.438;2023-09-18T00:10:50;16.15;;;9.63;;
80179;SDS011;69505;52.134;5.438;2023-09-18T00:13:18;14.45;;;9.40;;
80179;SDS011;69505;52.134;5.438;2023-09-18T00:15:45;15.02;;;9.38;;
80179;SDS011;69505;52.134;5.438;2023-09-18T00:18:13;15.55;;;9.30;;
80179;SDS011;69505;52.134;5.438;2023-09-18T00:20:41;16.15;;;9.45;;
80179;SDS011;69505;52.134;5.438;2023-09-18T00:23:09;13.45;;;9.38;;
80179;SDS011;69505;52.134;5.438;2023-09-18T00:25:35;12.88;;;9.32;;
80179;SDS011;69505;52.134;5.438;2023-09-18T00:28:07;13.95;;;9.55;;
80179;SDS011;69505;52.134;5.438;2023-09-18T00:30:34;17.30;;;9.98;;
80179;SDS011;69505;52.134;5.438;2023-09-18T00:33:02;16.42;;;9.85;;
80179;SDS011;69505;52.134;5.438;2023-09-18T00:35:29;13.60;;;9.93;;
80179;SDS011;69505;52.134;5.438;2023-09-18T00:37:56;14.73;;;9.30;;
80179;SDS011;69505;52.134;5.438;2023-09-18T00:40:22;11.93;;;9.80;;
80179;SDS011;69505;52.134;5.438;2023-09-18T00:42:49;13.02;;;9.20;;
80179;SDS011;69505;52.134;5.438;2023-09-18T00:45:16;11.52;;;9.02;;
80179;SDS011;69505;52.134;5.438;2023-09-18T00:47:42;11.18;;;8.38;;
80179;SDS011;69505;52.134;5.438;2023-09-18T00:50:10;12.25;;;9.13;;
80179;SDS011;69505;52.134;5.438;2023-09-18T00:52:39;13.90;;;8.55;;
80179;SDS011;69505;52.134;5.438;2023-09-18T00:55:08;13.52;;;9.52;;
80179;SDS011;69505;52.134;5.438;2023-09-18T00:57:36;10.95;;;8.52;;
80179;SDS011;69505;52.134;5.438;2023-09-18T01:00:04;11.73;;;9.20;;
80179;SDS011;69505;52.134;5.438;2023-09-18T01:02:32;13.35;;;9.38;;
80179;SDS011;69505;52.134;5.438;2023-09-18T01:04:59;13.23;;;8.85;;
80179;SDS011;69505;52.134;5.438;2023-09-18T01:07:26;11.85;;;9.13;;
80179;SDS011;69505;52.134;5.438;2023-09-18T01:09:55;12.65;;;9.15;;
80179;SDS011;69505;52.134;5.438;2023-09-18T01:17:56;11.05;;;8.90;;
80179;SDS011;69505;52.134;5.438;2023-09-18T01:20:23;12.18;;;8.73;;
80179;SDS011;69505;52.134;5.438;2023-09-18T01:22:50;10.93;;;8.40;;
80179;SDS011;69505;52.134;5.438;2023-09-18T01:25:16;11.52;;;8.73;;
80179;SDS011;69505;52.134;5.438;2023-09-18T01:27:43;12.02;;;9.15;;
80179;SDS011;69505;52.134;5.438;2023-09-18T01:30:09;13.07;;;9.00;;
80179;SDS011;69505;52.134;5.438;2023-09-18T01:32:36;12.40;;;8.48;;
80179;SDS011;69505;52.134;5.438;2023-09-18T01:35:07;14.63;;;9.32;;
80179;SDS011;69505;52.134;5.438;2023-09-18T01:37:36;17.40;;;9.68;;
80179;SDS011;69505;52.134;5.438;2023-09-18T01:40:04;13.02;;;9.20;;
80179;SDS011;69505;52.134;5.438;2023-09-18T01:42:33;14.60;;;9.48;;
80179;SDS011;69505;52.134;5.438;2023-09-18T01:45:01;12.77;;;9.52;;
80179;SDS011;69505;52.134;5.438;2023-09-18T01:47:29;14.85;;;9.13;;
80179;SDS011;69505;52.134;5.438;2023-09-18T01:49:55;11.77;;;8.90;;
80179;SDS011;69505;52.134;5.438;2023-09-18T01:52:22;13.05;;;9.00;;
80179;SDS011;69505;52.134;5.438;2023-09-18T01:54:49;13.75;;;9.45;;
80179;SDS011;69505;52.134;5.438;2023-09-18T01:57:16;12.57;;;9.02;;
80179;SDS011;69505;52.134;5.438;2023-09-18T01:59:42;14.15;;;8.65;;
80179;SDS011;69505;52.134;5.438;2023-09-18T02:02:10;11.32;;;8.60;;
80179;SDS011;69505;52.134;5.438;2023-09-18T02:04:48;13.35;;;9.55;;
80179;SDS011;69505;52.134;5.438;2023-09-18T02:07:34;11.07;;;8.57;;
80179;SDS011;69505;52.134;5.438;2023-09-18T02:10:01;13.43;;;9.20;;
80179;SDS011;69505;52.134;5.438;2023-09-18T02:12:29;11.73;;;8.55;;
80179;SDS011;69505;52.134;5.438;2023-09-18T02:14:56;17.77;;;9.77;;
80179;SDS011;69505;52.134;5.438;2023-09-18T02:17:24;16.27;;;10.43;;
80179;SDS011;69505;52.134;5.438;2023-09-18T02:19:51;13.57;;;10.07;;
80179;SDS011;69505;52.134;5.438;2023-09-18T02:22:18;14.88;;;9.70;;
80179;SDS011;69505;52.134;5.438;2023-09-18T02:24:45;13.38;;;9.35;;
80179;SDS011;69505;52.134;5.438;2023-09-18T02:27:11;13.57;;;9.55;;
80179;SDS011;69505;52.134;5.438;2023-09-18T02:29:38;14.65;;;9.73;;
80179;SDS011;69505;52.134;5.438;2023-09-18T02:32:05;13.20;;;9.43;;
80179;SDS011;69505;52.134;5.438;2023-09-18T02:34:32;10.73;;;8.90;;
80179;SDS011;69505;52.134;5.438;2023-09-18T02:37:00;14.85;;;8.63;;
80179;SDS011;69505;52.134;5.438;2023-09-18T02:39:26;10.55;;;8.43;;
80179;SDS011;69505;52.134;5.438;2023-09-18T02:41:53;14.93;;;9.85;;
80179;SDS011;69505;52.134;5.438;2023-09-18T02:44:20;13.48;;;9.25;;
80179;SDS011;69505;52.134;5.438;2023-09-18T02:46:47;13.52;;;9.70;;
80179;SDS011;69505;52.134;5.438;2023-09-18T02:49:14;13.32;;;8.75;;
80179;SDS011;69505;52.134;5.438;2023-09-18T02:51:41;12.70;;;8.82;;
80179;SDS011;69505;52.134;5.438;2023-09-18T02:54:07;13.02;;;10.63;;
80179;SDS011;69505;52.134;5.438;2023-09-18T02:56:34;10.20;;;8.73;;
80179;SDS011;69505;52.134;5.438;2023-09-18T02:59:01;12.95;;;8.23;;
80179;SDS011;69505;52.134;5.438;2023-09-18T03:01:27;11.02;;;8.50;;
80179;SDS011;69505;52.134;5.438;2023-09-18T03:03:54;11.00;;;8.52;;
80179;SDS011;69505;52.134;5.438;2023-09-18T03:06:21;12.00;;;9.30;;
80179;SDS011;69505;52.134;5.438;2023-09-18T03:08:48;11.48;;;9.52;;
80179;SDS011;69505;52.134;5.438;2023-09-18T03:11:14;12.20;;;9.40;;
80179;SDS011;69505;52.134;5.438;2023-09-18T03:13:43;15.40;;;9.50;;
80179;SDS011;69505;52.134;5.438;2023-09-18T03:16:11;15.23;;;9.20;;
80179;SDS011;69505;52.134;5.438;2023-09-18T03:18:38;15.23;;;9.23;;
80179;SDS011;69505;52.134;5.438;2023-09-18T03:21:05;11.65;;;9.45;;
80179;SDS011;69505;52.134;5.438;2023-09-18T03:23:32;14.52;;;9.68;;
80179;SDS011;69505;52.134;5.438;2023-09-18T03:25:59;12.70;;;10.05;;
80179;SDS011;69505;52.134;5.438;2023-09-18T03:28:26;13.98;;;9.45;;
80179;SDS011;69505;52.134;5.438;2023-09-18T03:30:52;15.73;;;10.05;;
80179;SDS011;69505;52.134;5.438;2023-09-18T03:33:19;11.60;;;8.45;;
80179;SDS011;69505;52.134;5.438;2023-09-18T03:35:50;12.02;;;9.70;;
80179;SDS011;69505;52.134;5.438;2023-09-18T03:38:17;14.98;;;8.93;;
80179;SDS011;69505;52.134;5.438;2023-09-18T03:40:44;14.25;;;9.25;;
80179;SDS011;69505;52.134;5.438;2023-09-18T03:43:11;14.18;;;9.40;;
80179;SDS011;69505;52.134;5.438;2023-09-18T03:45:40;13.57;;;9.82;;
80179;SDS011;69505;52.134;5.438;2023-09-18T03:48:08;13.10;;;9.45;;
80179;SDS011;69505;52.134;5.438;2023-09-18T03:50:35;14.15;;;10.02;;
80179;SDS011;69505;52.134;5.438;2023-09-18T03:53:02;17.00;;;10.35;;
80179;SDS011;69505;52.134;5.438;2023-09-18T03:55:29;13.32;;;9.85;;
80179;SDS011;69505;52.134;5.438;2023-09-18T03:57:56;16.00;;;11.02;;
80179;SDS011;69505;52.134;5.438;2023-09-18T04:00:23;16.70;;;10.95;;
80179;SDS011;69505;52.134;5.438;2023-09-18T04:02:50;14.88;;;10.52;;
80179;SDS011;69505;52.134;5.438;2023-09-18T04:05:17;18.92;;;11.93;;
80179;SDS011;69505;52.134;5.438;2023-09-18T04:07:43;17.48;;;11.75;;
80179;SDS011;69505;52.134;5.438;2023-09-18T04:10:13;17.98;;;11.68;;
80179;SDS011;69505;52.134;5.438;2023-09-18T04:12:50;18.58;;;11.30;;
80179;SDS011;69505;52.134;5.438;2023-09-18T04:15:18;18.95;;;11.20;;
80179;SDS011;69505;52.134;5.438;2023-09-18T04:17:46;20.85;;;11.63;;
80179;SDS011;69505;52.134;5.438;2023-09-18T04:20:13;22.77;;;11.73;;
80179;SDS011;69505;52.134;5.438;2023-09-18T04:22:42;18.08;;;11.25;;
80179;SDS011;69505;52.134;5.438;2023-09-18T04:25:11;16.67;;;10.75;;
80179;SDS011;69505;52.134;5.438;2023-09-18T04:27:38;17.65;;;10.45;;
80179;SDS011;69505;52.134;5.438;2023-09-18T04:30:07;14.52;;;10.48;;
80179;SDS011;69505;52.134;5.438;2023-09-18T04:32:39;16.13;;;9.82;;
80179;SDS011;69505;52.134;5.438;2023-09-18T04:35:07;12.95;;;9.85;;
80179;SDS011;69505;52.134;5.438;2023-09-18T04:37:36;16.38;;;9.90;;
80179;SDS011;69505;52.134;5.438;2023-09-18T04:40:05;13.57;;;9.02;;
80179;SDS011;69505;52.134;5.438;2023-09-18T04:42:36;18.23;;;10.02;;
80179;SDS011;69505;52.134;5.438;2023-09-18T04:45:04;14.43;;;9.30;;
80179;SDS011;69505;52.134;5.438;2023-09-18T04:47:31;12.07;;;8.88;;
80179;SDS011;69505;52.134;5.438;2023-09-18T04:49:58;13.52;;;8.65;;
80179;SDS011;69505;52.134;5.438;2023-09-18T04:52:25;16.88;;;9.75;;
80179;SDS011;69505;52.134;5.438;2023-09-18T04:54:51;11.68;;;8.55;;
80179;SDS011;69505;52.134;5.438;2023-09-18T04:57:18;16.23;;;9.02;;
80179;SDS011;69505;52.134;5.438;2023-09-18T04:59:45;14.60;;;9.60;;
80179;SDS011;69505;52.134;5.438;2023-09-18T05:02:11;34.88;;;10.25;;
80179;SDS011;69505;52.134;5.438;2023-09-18T05:04:39;31.20;;;10.38;;
80179;SDS011;69505;52.134;5.438;2023-09-18T05:07:05;20.88;;;9.93;;
80179;SDS011;69505;52.134;5.438;2023-09-18T05:09:32;20.67;;;8.23;;
80179;SDS011;69505;52.134;5.438;2023-09-18T05:12:02;14.00;;;7.85;;
80179;SDS011;69505;52.134;5.438;2023-09-18T05:14:30;10.15;;;6.10;;
80179;SDS011;69505;52.134;5.438;2023-09-18T05:16:57;11.65;;;5.88;;
80179;SDS011;69505;52.134;5.438;2023-09-18T05:19:24;12.23;;;5.18;;
80179;SDS011;69505;52.134;5.438;2023-09-18T05:21:50;7.60;;;5.10;;
80179;SDS011;69505;52.134;5.438;2023-09-18T05:24:17;9.02;;;4.32;;
80179;SDS011;69505;52.134;5.438;2023-09-18T05:26:46;9.20;;;4.88;;
80179;SDS011;69505;52.134;5.438;2023-09-18T05:29:13;11.15;;;4.53;;
80179;SDS011;69505;52.134;5.438;2023-09-18T05:31:39;13.88;;;4.43;;
80179;SDS011;69505;52.134;5.438;2023-09-18T05:34:06;8.15;;;4.07;;
80179;SDS011;69505;52.134;5.438;2023-09-18T05:36:33;5.35;;;3.72;;
80179;SDS011;69505;52.134;5.438;2023-09-18T05:38:59;5.82;;;3.70;;
80179;SDS011;69505;52.134;5.438;2023-09-18T05:41:26;6.30;;;4.38;;
80179;SDS011;69505;52.134;5.438;2023-09-18T05:43:56;7.40;;;3.97;;
80179;SDS011;69505;52.134;5.438;2023-09-18T05:46:22;8.30;;;4.20;;
80179;SDS011;69505;52.134;5.438;2023-09-18T05:48:49;8.63;;;4.22;;
80179;SDS011;69505;52.134;5.438;2023-09-18T05:51:17;8.68;;;4.20;;
80179;SDS011;69505;52.134;5.438;2023-09-18T05:53:44;8.50;;;3.97;;
80179;SDS011;69505;52.134;5.438;2023-09-18T05:56:10;6.68;;;3.90;;
80179;SDS011;69505;52.134;5.438;2023-09-18T05:58:37;9.70;;;4.10;;
80179;SDS011;69505;52.134;5.438;2023-09-18T06:01:03;6.55;;;4.38;;
80179;SDS011;69505;52.134;5.438;2023-09-18T06:03:30;12.20;;;4.30;;
80179;SDS011;69505;52.134;5.438;2023-09-18T06:06:02;5.97;;;4.25;;
80179;SDS011;69505;52.134;5.438;2023-09-18T06:08:29;6.22;;;3.75;;
80179;SDS011;69505;52.134;5.438;2023-09-18T06:10:57;6.32;;;4.50;;
80179;SDS011;69505;52.134;5.438;2023-09-18T06:13:24;6.82;;;4.15;;
80179;SDS011;69505;52.134;5.438;2023-09-18T06:15:52;8.27;;;4.00;;
80179;SDS011;69505;52.134;5.438;2023-09-18T06:18:21;6.65;;;3.33;;
80179;SDS011;69505;52.134;5.438;2023-09-18T06:20:48;7.15;;;4.45;;
80179;SDS011;69505;52.134;5.438;2023-09-18T06:23:15;8.32;;;4.15;;
80179;SDS011;69505;52.134;5.438;2023-09-18T06:25:42;9.73;;;5.05;;
80179;SDS011;69505;52.134;5.438;2023-09-18T06:28:08;7.15;;;4.82;;
80179;SDS011;69505;52.134;5.438;2023-09-18T06:30:35;10.07;;;5.45;;
80179;SDS011;69505;52.134;5.438;2023-09-18T06:33:02;8.93;;;6.93;;
80179;SDS011;69505;52.134;5.438;2023-09-18T06:35:32;8.82;;;5.80;;
80179;SDS011;69505;52.134;5.438;2023-09-18T06:37:59;11.70;;;5.90;;
80179;SDS011;69505;52.134;5.438;2023-09-18T06:40:26;8.23;;;5.95;;
80179;SDS011;69505;52.134;5.438;2023-09-18T06:42:57;10.35;;;6.18;;
80179;SDS011;69505;52.134;5.438;2023-09-18T06:45:24;7.43;;;5.35;;
80179;SDS011;69505;52.134;5.438;2023-09-18T06:47:51;10.02;;;5.85;;
80179;SDS011;69505;52.134;5.438;2023-09-18T06:50:19;8.27;;;5.97;;
80179;SDS011;69505;52.134;5.438;2023-09-18T06:52:46;8.98;;;6.28;;
80179;SDS011;69505;52.134;5.438;2023-09-18T06:55:12;11.40;;;6.57;;
80179;SDS011;69505;52.134;5.438;2023-09-18T06:57:40;9.95;;;5.90;;
80179;SDS011;69505;52.134;5.438;2023-09-18T07:00:07;10.65;;;5.88;;
80179;SDS011;69505;52.134;5.438;2023-09-18T07:02:34;13.00;;;6.13;;
80179;SDS011;69505;52.134;5.438;2023-09-18T07:05:01;10.60;;;6.10;;
80179;SDS011;69505;52.134;5.438;2023-09-18T07:07:28;13.55;;;6.68;;
80179;SDS011;69505;52.134;5.438;2023-09-18T07:09:55;11.85;;;6.65;;
80179;SDS011;69505;52.134;5.438;2023-09-18T07:12:24;9.95;;;6.20;;
80179;SDS011;69505;52.134;5.438;2023-09-18T07:14:51;12.50;;;6.10;;
80179;SDS011;69505;52.134;5.438;2023-09-18T07:17:17;11.27;;;6.13;;
80179;SDS011;69505;52.134;5.438;2023-09-18T07:19:44;14.32;;;6.20;;
80179;SDS011;69505;52.134;5.438;2023-09-18T07:22:11;10.43;;;6.35;;
80179;SDS011;69505;52.134;5.438;2023-09-18T07:24:37;8.48;;;6.60;;
80179;SDS011;69505;52.134;5.438;2023-09-18T07:27:07;10.77;;;6.20;;
80179;SDS011;69505;52.134;5.438;2023-09-18T07:29:33;9.70;;;6.60;;
80179;SDS011;69505;52.134;5.438;2023-09-18T07:32:01;13.55;;;6.63;;
80179;SDS011;69505;52.134;5.438;2023-09-18T07:34:28;11.55;;;7.85;;
80179;SDS011;69505;52.134;5.438;2023-09-18T07:36:54;11.82;;;6.32;;
80179;SDS011;69505;52.134;5.438;2023-09-18T07:39:22;9.27;;;6.00;;
80179;SDS011;69505;52.134;5.438;2023-09-18T07:41:49;9.60;;;6.10;;
80179;SDS011;69505;52.134;5.438;2023-09-18T07:44:19;9.73;;;6.18;;
80179;SDS011;69505;52.134;5.438;2023-09-18T07:46:47;9.68;;;5.45;;
80179;SDS011;69505;52.134;5.438;2023-09-18T07:49:14;9.35;;;5.55;;
80179;SDS011;69505;52.134;5.438;2023-09-18T07:51:41;10.55;;;6.50;;
80179;SDS011;69505;52.134;5.438;2023-09-18T07:54:07;9.50;;;5.53;;
80179;SDS011;69505;52.134;5.438;2023-09-18T07:56:34;9.30;;;5.93;;
80179;SDS011;69505;52.134;5.438;2023-09-18T07:59:02;6.60;;;5.07;;
80179;SDS011;69505;52.134;5.438;2023-09-18T08:01:29;7.63;;;5.57;;
80179;SDS011;69505;52.134;5.438;2023-09-18T08:03:58;7.38;;;4.75;;
80179;SDS011;69505;52.134;5.438;2023-09-18T08:06:27;6.57;;;5.43;;
80179;SDS011;69505;52.134;5.438;2023-09-18T08:08:54;8.35;;;4.70;;
80179;SDS011;69505;52.134;5.438;2023-09-18T08:11:21;6.95;;;4.45;;
80179;SDS011;69505;52.134;5.438;2023-09-18T08:13:48;7.55;;;4.45;;
80179;SDS011;69505;52.134;5.438;2023-09-18T08:16:15;5.50;;;3.97;;
80179;SDS011;69505;52.134;5.438;2023-09-18T08:18:43;7.72;;;4.28;;
80179;SDS011;69505;52.134;5.438;2023-09-18T08:21:10;6.22;;;3.63;;
80179;SDS011;69505;52.134;5.438;2023-09-18T08:23:39;6.00;;;3.60;;
80179;SDS011;69505;52.134;5.438;2023-09-18T08:26:06;7.63;;;3.50;;
80179;SDS011;69505;52.134;5.438;2023-09-18T08:28:33;7.70;;;3.85;;
80179;SDS011;69505;52.134;5.438;2023-09-18T08:31:03;8.95;;;4.38;;
80179;SDS011;69505;52.134;5.438;2023-09-18T08:33:30;8.30;;;3.80;;
80179;SDS011;69505;52.134;5.438;2023-09-18T08:35:56;4.90;;;3.40;;
80179;SDS011;69505;52.134;5.438;2023-09-18T08:38:23;7.70;;;3.33;;
80179;SDS011;69505;52.134;5.438;2023-09-18T08:40:50;6.72;;;3.13;;
80179;SDS011;69505;52.134;5.438;2023-09-18T08:43:20;6.88;;;3.47;;
80179;SDS011;69505;52.134;5.438;2023-09-18T08:45:51;5.15;;;2.90;;
80179;SDS011;69505;52.134;5.438;2023-09-18T08:48:20;4.75;;;3.10;;
80179;SDS011;69505;52.134;5.438;2023-09-18T08:50:48;6.13;;;3.33;;
80179;SDS011;69505;52.134;5.438;2023-09-18T08:53:15;6.90;;;3.22;;
80179;SDS011;69505;52.134;5.438;2023-09-18T08:55:43;7.70;;;3.08;;
80179;SDS011;69505;52.134;5.438;2023-09-18T08:58:10;6.53;;;3.30;;
80179;SDS011;69505;52.134;5.438;2023-09-18T09:00:37;3.75;;;2.92;;
80179;SDS011;69505;52.134;5.438;2023-09-18T09:03:04;5.15;;;2.78;;
80179;SDS011;69505;52.134;5.438;2023-09-18T09:05:31;5.22;;;3.47;;
80179;SDS011;69505;52.134;5.438;2023-09-18T09:07:59;4.20;;;2.70;;
80179;SDS011;69505;52.134;5.438;2023-09-18T09:10:26;5.90;;;2.88;;
80179;SDS011;69505;52.134;5.438;2023-09-18T09:12:53;4.50;;;2.72;;
80179;SDS011;69505;52.134;5.438;2023-09-18T09:15:25;3.65;;;2.35;;
80179;SDS011;69505;52.134;5.438;2023-09-18T09:18:04;4.68;;;2.42;;
80179;SDS011;69505;52.134;5.438;2023-09-18T09:20:32;4.40;;;2.42;;
80179;SDS011;69505;52.134;5.438;2023-09-18T09:23:03;3.83;;;2.35;;
80179;SDS011;69505;52.134;5.438;2023-09-18T09:25:31;5.10;;;2.38;;
80179;SDS011;69505;52.134;5.438;2023-09-18T09:28:06;5.38;;;2.50;;
80179;SDS011;69505;52.134;5.438;2023-09-18T09:30:34;4.50;;;2.28;;
80179;SDS011;69505;52.134;5.438;2023-09-18T09:33:04;5.63;;;2.28;;
80179;SDS011;69505;52.134;5.438;2023-09-18T09:35:33;4.55;;;2.15;;
80179;SDS011;69505;52.134;5.438;2023-09-18T09:38:02;2.85;;;1.63;;
80179;SDS011;69505;52.134;5.438;2023-09-18T09:40:35;5.47;;;2.10;;
80179;SDS011;69505;52.134;5.438;2023-09-18T09:43:04;4.72;;;2.10;;
80179;SDS011;69505;52.134;5.438;2023-09-18T09:45:34;5.60;;;1.92;;
80179;SDS011;69505;52.134;5.438;2023-09-18T09:48:05;3.78;;;2.33;;
80179;SDS011;69505;52.134;5.438;2023-09-18T09:50:33;4.50;;;2.00;;
80179;SDS011;69505;52.134;5.438;2023-09-18T09:53:10;5.10;;;2.40;;
80179;SDS011;69505;52.134;5.438;2023-09-18T09:55:37;6.25;;;2.17;;
80179;SDS011;69505;52.134;5.438;2023-09-18T09:58:05;5.05;;;2.60;;
80179;SDS011;69505;52.134;5.438;2023-09-18T10:00:46;4.65;;;2.63;;
80179;SDS011;69505;52.134;5.438;2023-09-18T10:03:18;3.97;;;2.60;;
80179;SDS011;69505;52.134;5.438;2023-09-18T10:05:48;3.33;;;2.60;;
80179;SDS011;69505;52.134;5.438;2023-09-18T10:08:18;3.55;;;2.60;;
80179;SDS011;69505;52.134;5.438;2023-09-18T10:10:48;4.72;;;3.10;;
80179;SDS011;69505;52.134;5.438;2023-09-18T10:13:18;5.35;;;2.97;;
80179;SDS011;69505;52.134;5.438;2023-09-18T10:15:48;3.67;;;2.53;;
80179;SDS011;69505;52.134;5.438;2023-09-18T10:18:18;4.72;;;3.28;;
80179;SDS011;69505;52.134;5.438;2023-09-18T10:21:15;4.43;;;3.65;;
80179;SDS011;69505;52.134;5.438;2023-09-18T10:29:29;5.63;;;2.97;;
80179;SDS011;69505;52.134;5.438;2023-09-18T10:31:57;3.67;;;2.90;;
80179;SDS011;69505;52.134;5.438;2023-09-18T10:34:25;4.68;;;3.63;;
80179;SDS011;69505;52.134;5.438;2023-09-18T10:36:53;4.05;;;3.20;;
80179;SDS011;69505;52.134;5.438;2023-09-18T10:39:21;4.47;;;3.28;;
80179;SDS011;69505;52.134;5.438;2023-09-18T10:41:51;8.02;;;4.03;;
80179;SDS011;69505;52.134;5.438;2023-09-18T10:44:20;4.22;;;3.83;;
80179;SDS011;69505;52.134;5.438;2023-09-18T10:46:47;6.95;;;4.22;;
80179;SDS011;69505;52.134;5.438;2023-09-18T10:49:16;9.85;;;5.32;;
80179;SDS011;69505;52.134;5.438;2023-09-18T10:51:42;5.25;;;3.88;;
80179;SDS011;69505;52.134;5.438;2023-09-18T10:54:09;6.72;;;3.95;;
80179;SDS011;69505;52.134;5.438;2023-09-18T10:56:40;5.78;;;3.65;;
80179;SDS011;69505;52.134;5.438;2023-09-18T10:59:10;6.30;;;4.25;;
80179;SDS011;69505;52.134;5.438;2023-09-18T11:01:37;5.72;;;3.83;;
80179;SDS011;69505;52.134;5.438;2023-09-18T11:04:04;5.05;;;3.83;;
80179;SDS011;69505;52.134;5.438;2023-09-18T11:09:22;6.10;;;3.67;;
80179;SDS011;69505;52.134;5.438;2023-09-18T11:14:45;7.18;;;4.00;;
80179;SDS011;69505;52.134;5.438;2023-09-18T11:22:36;5.57;;;3.80;;
80179;SDS011;69505;52.134;5.438;2023-09-18T11:28:15;4.15;;;3.15;;
80179;SDS011;69505;52.134;5.438;2023-09-18T11:30:54;5.43;;;3.38;;
80179;SDS011;69505;52.134;5.438;2023-09-18T11:36:15;4.32;;;2.67;;
80179;SDS011;69505;52.134;5.438;2023-09-18T11:38:57;6.00;;;2.67;;
80179;SDS011;69505;52.134;5.438;2023-09-18T11:41:30;4.80;;;2.83;;
80179;SDS011;69505;52.134;5.438;2023-09-18T11:46:44;6.93;;;3.88;;
80179;SDS011;69505;52.134;5.438;2023-09-18T11:49:12;7.00;;;2.92;;
80179;SDS011;69505;52.134;5.438;2023-09-18T11:51:42;5.78;;;2.53;;
80179;SDS011;69505;52.134;5.438;2023-09-18T11:54:09;5.75;;;3.80;;
80179;SDS011;69505;52.134;5.438;2023-09-18T11:56:36;6.35;;;3.95;;
80179;SDS011;69505;52.134;5.438;2023-09-18T11:59:06;5.90;;;3.47;;
80179;SDS011;69505;52.134;5.438;2023-09-18T12:01:33;14.52;;;3.55;;
80179;SDS011;69505;52.134;5.438;2023-09-18T12:04:03;6.15;;;3.30;;
80179;SDS011;69505;52.134;5.438;2023-09-18T12:06:38;5.47;;;3.83;;
80179;SDS011;69505;52.134;5.438;2023-09-18T12:09:06;5.70;;;3.50;;
80179;SDS011;69505;52.134;5.438;2023-09-18T12:11:34;4.32;;;2.83;;
80179;SDS011;69505;52.134;5.438;2023-09-18T12:14:01;6.00;;;2.90;;
80179;SDS011;69505;52.134;5.438;2023-09-18T12:16:30;5.45;;;2.90;;
80179;SDS011;69505;52.134;5.438;2023-09-18T12:19:04;5.75;;;2.75;;
80179;SDS011;69505;52.134;5.438;2023-09-18T12:21:32;4.05;;;2.30;;
80179;SDS011;69505;52.134;5.438;2023-09-18T12:24:06;4.85;;;2.63;;
80179;SDS011;69505;52.134;5.438;2023-09-18T12:26:32;5.45;;;2.90;;
80179;SDS011;69505;52.134;5.438;2023-09-18T12:28:59;6.07;;;2.72;;
80179;SDS011;69505;52.134;5.438;2023-09-18T12:31:26;5.38;;;2.45;;
80179;SDS011;69505;52.134;5.438;2023-09-18T12:33:53;5.32;;;2.40;;
80179;SDS011;69505;52.134;5.438;2023-09-18T12:36:20;8.02;;;2.90;;
80179;SDS011;69505;52.134;5.438;2023-09-18T12:38:56;5.65;;;2.58;;
80179;SDS011;69505;52.134;5.438;2023-09-18T12:41:24;6.32;;;2.63;;
80179;SDS011;69505;52.134;5.438;2023-09-18T12:43:58;6.50;;;3.40;;
80179;SDS011;69505;52.134;5.438;2023-09-18T12:46:25;4.32;;;2.28;;
80179;SDS011;69505;52.134;5.438;2023-09-18T12:48:52;3.50;;;2.13;;
80179;SDS011;69505;52.134;5.438;2023-09-18T12:51:19;6.35;;;2.80;;
80179;SDS011;69505;52.134;5.438;2023-09-18T12:53:59;12.90;;;2.75;;
80179;SDS011;69505;52.134;5.438;2023-09-18T12:56:33;3.80;;;2.10;;
80179;SDS011;69505;52.134;5.438;2023-09-18T12:59:07;5.13;;;2.17;;
80179;SDS011;69505;52.134;5.438;2023-09-18T13:01:45;3.38;;;2.50;;
80179;SDS011;69505;52.134;5.438;2023-09-18T13:04:14;3.88;;;2.90;;
80179;SDS011;69505;52.134;5.438;2023-09-18T13:06:41;3.72;;;2.45;;
80179;SDS011;69505;52.134;5.438;2023-09-18T13:09:17;4.15;;;2.28;;
80179;SDS011;69505;52.134;5.438;2023-09-18T13:11:55;5.70;;;2.55;;
80179;SDS011;69505;52.134;5.438;2023-09-18T13:14:26;5.60;;;2.08;;
80179;SDS011;69505;52.134;5.438;2023-09-18T13:16:53;4.72;;;2.42;;
80179;SDS011;69505;52.134;5.438;2023-09-18T13:19:26;4.10;;;2.22;;
80179;SDS011;69505;52.134;5.438;2023-09-18T13:21:52;4.07;;;2.35;;
80179;SDS011;69505;52.134;5.438;2023-09-18T13:26:53;4.05;;;2.22;;
80179;SDS011;69505;52.134;5.438;2023-09-18T13:29:21;5.13;;;2.13;;
80179;SDS011;69505;52.134;5.438;2023-09-18T13:31:48;4.47;;;1.80;;
80179;SDS011;69505;52.134;5.438;2023-09-18T13:34:15;3.75;;;1.92;;
80179;SDS011;69505;52.134;5.438;2023-09-18T13:36:45;3.90;;;1.75;;
80179;SDS011;69505;52.134;5.438;2023-09-18T13:39:15;5.35;;;2.30;;
80179;SDS011;69505;52.134;5.438;2023-09-18T13:41:43;3.90;;;1.80;;
80179;SDS011;69505;52.134;5.438;2023-09-18T13:44:10;3.45;;;1.80;;
80179;SDS011;69505;52.134;5.438;2023-09-18T13:46:37;8.02;;;2.20;;
80179;SDS011;69505;52.134;5.438;2023-09-18T13:49:04;5.28;;;1.88;;
80179;SDS011;69505;52.134;5.438;2023-09-18T13:51:31;5.60;;;2.33;;
80179;SDS011;69505;52.134;5.438;2023-09-18T13:53:58;5.00;;;1.77;;
80179;SDS011;69505;52.134;5.438;2023-09-18T13:56:26;5.15;;;1.60;;
80179;SDS011;69505;52.134;5.438;2023-09-18T13:58:55;3.40;;;1.35;;
80179;SDS011;69505;52.134;5.438;2023-09-18T14:01:25;3.47;;;1.60;;
80179;SDS011;69505;52.134;5.438;2023-09-18T14:03:54;3.53;;;1.40;;
80179;SDS011;69505;52.134;5.438;2023-09-18T14:06:21;3.13;;;1.40;;
80179;SDS011;69505;52.134;5.438;2023-09-18T14:08:48;3.58;;;1.50;;
80179;SDS011;69505;52.134;5.438;2023-09-18T14:11:15;2.40;;;1.30;;
80179;SDS011;69505;52.134;5.438;2023-09-18T14:13:42;2.70;;;1.08;;
80179;SDS011;69505;52.134;5.438;2023-09-18T14:16:09;3.67;;;1.65;;
80179;SDS011;69505;52.134;5.438;2023-09-18T14:18:37;2.97;;;1.40;;
80179;SDS011;69505;52.134;5.438;2023-09-18T14:21:03;3.28;;;1.13;;
80179;SDS011;69505;52.134;5.438;2023-09-18T14:23:30;4.85;;;1.48;;
80179;SDS011;69505;52.134;5.438;2023-09-18T14:25:57;4.00;;;1.23;;
80179;SDS011;69505;52.134;5.438;2023-09-18T14:28:25;7.47;;;1.45;;
80179;SDS011;69505;52.134;5.438;2023-09-18T14:30:51;4.00;;;1.25;;
80179;SDS011;69505;52.134;5.438;2023-09-18T14:33:18;3.35;;;1.13;;
80179;SDS011;69505;52.134;5.438;2023-09-18T14:35:45;2.92;;;1.10;;
80179;SDS011;69505;52.134;5.438;2023-09-18T14:38:12;3.65;;;1.10;;
80179;SDS011;69505;52.134;5.438;2023-09-18T14:40:41;3.83;;;2.17;;
80179;SDS011;69505;52.134;5.438;2023-09-18T14:43:08;4.13;;;1.45;;
80179;SDS011;69505;52.134;5.438;2023-09-18T14:45:35;2.65;;;1.52;;
80179;SDS011;69505;52.134;5.438;2023-09-18T14:48:01;2.10;;;1.02;;
80179;SDS011;69505;52.134;5.438;2023-09-18T14:50:28;3.97;;;1.35;;
80179;SDS011;69505;52.134;5.438;2023-09-18T14:52:55;2.67;;;1.30;;
80179;SDS011;69505;52.134;5.438;2023-09-18T14:55:21;4.90;;;1.30;;
80179;SDS011;69505;52.134;5.438;2023-09-18T14:57:49;2.00;;;1.20;;
80179;SDS011;69505;52.134;5.438;2023-09-18T15:00:20;6.10;;;1.42;;
80179;SDS011;69505;52.134;5.438;2023-09-18T15:02:47;4.30;;;1.00;;
80179;SDS011;69505;52.134;5.438;2023-09-18T15:05:14;4.90;;;1.33;;
80179;SDS011;69505;52.134;5.438;2023-09-18T15:07:41;5.10;;;1.70;;
80179;SDS011;69505;52.134;5.438;2023-09-18T15:10:08;5.28;;;1.40;;
80179;SDS011;69505;52.134;5.438;2023-09-18T15:12:36;3.70;;;1.55;;
80179;SDS011;69505;52.134;5.438;2023-09-18T15:15:03;6.18;;;1.85;;
80179;SDS011;69505;52.134;5.438;2023-09-18T15:17:31;4.07;;;1.60;;
80179;SDS011;69505;52.134;5.438;2023-09-18T15:19:59;2.83;;;1.30;;